createdAt,value
2017-04-20T00:00:15.755Z,0.00
2017-04-20T00:01:10.810Z,0.00
2017-04-20T00:02:04.806Z,0.00
2017-04-20T00:03:04.771Z,0.00
2017-04-20T00:04:04.835Z,0.00
2017-04-20T00:04:59.810Z,0.00
2017-04-20T00:05:53.855Z,0.00
2017-04-20T00:06:53.954Z,0.00
2017-04-20T00:07:49.148Z,0.00
2017-04-20T00:08:44.037Z,0.00
2017-04-20T00:09:45.012Z,0.00
2017-04-20T00:10:46.051Z,0.00
2017-04-20T00:11:41.001Z,0.00
2017-04-20T00:12:41.048Z,0.00
2017-04-20T00:13:41.130Z,0.00
2017-04-20T00:14:41.051Z,0.00
2017-04-20T00:15:36.175Z,0.00
2017-04-20T00:16:31.122Z,0.00
2017-04-20T00:17:31.191Z,0.00
2017-04-20T00:18:26.237Z,0.00
2017-04-20T00:19:21.201Z,0.00
2017-04-20T00:20:21.225Z,0.00
2017-04-20T00:21:16.488Z,0.00
2017-04-20T00:22:11.274Z,0.00
2017-04-20T00:23:12.313Z,0.00
2017-04-20T00:24:12.300Z,0.00
2017-04-20T00:25:12.351Z,0.00
2017-04-20T00:26:12.312Z,0.00
2017-04-20T00:27:13.404Z,0.00
2017-04-20T00:28:14.412Z,0.00
2017-04-20T00:29:09.369Z,0.00
2017-04-20T00:30:08.425Z,0.00
2017-04-20T00:31:03.464Z,0.00
2017-04-20T00:32:03.495Z,0.00
2017-04-20T00:33:03.523Z,0.00
2017-04-20T00:34:03.580Z,0.00
2017-04-20T00:34:57.526Z,0.00
2017-04-20T00:35:57.643Z,0.00
2017-04-20T00:36:52.740Z,0.00
2017-04-20T00:37:47.613Z,0.00
2017-04-20T00:38:47.586Z,0.00
2017-04-20T00:39:42.662Z,0.00
2017-04-20T00:40:37.737Z,0.00
2017-04-20T00:41:38.682Z,0.00
2017-04-20T00:42:39.094Z,0.00
2017-04-20T00:43:33.755Z,0.00
2017-04-20T00:44:33.793Z,0.00
2017-04-20T00:45:27.843Z,0.00
2017-04-20T00:46:27.856Z,0.00
2017-04-20T00:47:22.848Z,0.00
2017-04-20T00:48:18.009Z,0.00
2017-04-20T00:49:17.926Z,0.00
2017-04-20T00:50:12.901Z,0.00
2017-04-20T00:51:08.003Z,0.00
2017-04-20T00:52:07.927Z,0.00
2017-04-20T00:53:03.005Z,0.00
2017-04-20T00:53:58.100Z,0.00
2017-04-20T00:54:59.197Z,0.00
2017-04-20T00:55:59.010Z,0.00
2017-04-20T00:56:59.123Z,0.00
2017-04-20T00:57:54.121Z,0.00
2017-04-20T00:58:48.124Z,0.00
2017-04-20T00:59:48.220Z,0.00
2017-04-20T01:00:43.238Z,0.00
2017-04-20T01:01:43.576Z,0.00
2017-04-20T01:02:37.245Z,0.00
2017-04-20T01:03:38.245Z,0.00
2017-04-20T01:04:39.363Z,0.00
2017-04-20T01:05:34.308Z,0.00
2017-04-20T01:06:28.338Z,0.00
2017-04-20T01:07:28.348Z,0.00
2017-04-20T01:08:23.400Z,0.00
2017-04-20T01:09:23.383Z,0.00
2017-04-20T01:10:23.516Z,0.00
2017-04-20T01:11:29.416Z,0.00
2017-04-20T01:12:29.475Z,0.00
2017-04-20T01:13:29.488Z,0.00
2017-04-20T01:14:29.501Z,0.00
2017-04-20T01:15:23.528Z,0.00
2017-04-20T01:16:23.861Z,0.00
2017-04-20T01:17:18.622Z,0.00
2017-04-20T01:18:13.657Z,0.00
2017-04-20T01:19:14.625Z,0.00
2017-04-20T01:20:14.650Z,0.00
2017-04-20T01:21:09.707Z,0.00
2017-04-20T01:22:09.753Z,0.00
2017-04-20T01:23:03.737Z,0.00
2017-04-20T01:24:04.783Z,0.00
2017-04-20T01:25:05.776Z,0.00
2017-04-20T01:26:05.811Z,0.00
2017-04-20T01:27:05.848Z,0.00
2017-04-20T01:28:01.134Z,0.00
2017-04-20T01:28:54.849Z,0.00
2017-04-20T01:29:55.026Z,0.00
2017-04-20T01:30:49.884Z,0.00
2017-04-20T01:31:44.954Z,0.00
2017-04-20T01:32:45.928Z,0.00
2017-04-20T01:33:45.998Z,0.00
2017-04-20T01:34:45.963Z,0.00
2017-04-20T01:35:41.049Z,0.00
2017-04-20T01:36:35.050Z,0.00
2017-04-20T01:37:35.026Z,0.00
2017-04-20T01:38:30.094Z,0.00
2017-04-20T01:39:30.069Z,0.00
2017-04-20T01:40:24.155Z,0.00
2017-04-20T01:41:24.123Z,0.00
2017-04-20T01:42:19.407Z,0.00
2017-04-20T01:43:14.233Z,0.00
2017-04-20T01:44:14.275Z,0.00
2017-04-20T01:45:09.347Z,0.00
2017-04-20T01:46:04.332Z,0.00
2017-04-20T01:47:05.320Z,0.00
2017-04-20T01:48:05.325Z,0.00
2017-04-20T01:49:05.371Z,0.00
2017-04-20T01:50:00.418Z,0.00
2017-04-20T01:50:54.467Z,0.00
2017-04-20T01:51:54.383Z,0.00
2017-04-20T01:52:49.448Z,0.00
2017-04-20T01:53:49.464Z,0.00
2017-04-20T01:54:43.502Z,0.00
2017-04-20T01:55:44.752Z,0.00
2017-04-20T01:56:45.524Z,0.00
2017-04-20T01:57:40.715Z,0.00
2017-04-20T01:58:34.642Z,0.00
2017-04-20T01:59:34.712Z,0.00
2017-04-20T02:00:29.669Z,0.00
2017-04-20T02:01:29.676Z,0.00
2017-04-20T02:02:24.039Z,0.00
2017-04-20T02:03:23.745Z,0.00
2017-04-20T02:04:18.805Z,0.00
2017-04-20T02:05:13.748Z,0.00
2017-04-20T02:06:13.745Z,0.00
2017-04-20T02:07:08.960Z,0.00
2017-04-20T02:08:03.864Z,0.00
2017-04-20T02:09:03.833Z,0.00
2017-04-20T02:09:58.845Z,0.00
2017-04-20T02:10:53.879Z,0.00
2017-04-20T02:11:54.936Z,0.00
2017-04-20T02:12:55.943Z,0.00
2017-04-20T02:13:51.034Z,0.00
2017-04-20T02:14:45.006Z,0.00
2017-04-20T02:15:45.082Z,0.00
2017-04-20T02:16:45.047Z,0.00
2017-04-20T02:17:40.091Z,0.00
2017-04-20T02:18:34.119Z,0.00
2017-04-20T02:19:34.103Z,0.00
2017-04-20T02:20:29.133Z,0.00
2017-04-20T02:21:24.182Z,0.00
2017-04-20T02:22:30.147Z,0.00
2017-04-20T02:23:24.209Z,0.00
2017-04-20T02:24:24.223Z,0.00
2017-04-20T02:25:19.258Z,0.00
2017-04-20T02:26:19.389Z,0.00
2017-04-20T02:27:13.307Z,0.00
2017-04-20T02:28:13.346Z,0.00
2017-04-20T02:29:08.422Z,0.00
2017-04-20T02:30:03.351Z,0.00
2017-04-20T02:31:03.644Z,0.00
2017-04-20T02:31:58.828Z,0.00
2017-04-20T02:32:53.466Z,0.00
2017-04-20T02:33:53.452Z,0.00
2017-04-20T02:34:48.515Z,0.00
2017-04-20T02:35:43.456Z,0.00
2017-04-20T02:36:44.744Z,0.00
2017-04-20T02:37:44.532Z,0.00
2017-04-20T02:38:44.602Z,0.00
2017-04-20T02:39:39.590Z,0.00
2017-04-20T02:40:33.579Z,0.00
2017-04-20T02:41:33.596Z,0.00
2017-04-20T02:42:28.604Z,0.00
2017-04-20T02:43:34.628Z,0.00
2017-04-20T02:44:29.677Z,0.00
2017-04-20T02:45:23.740Z,0.00
2017-04-20T02:46:23.736Z,0.00
2017-04-20T02:47:23.724Z,0.00
2017-04-20T02:48:18.831Z,0.00
2017-04-20T02:49:12.824Z,0.00
2017-04-20T02:50:13.830Z,0.00
2017-04-20T02:51:13.843Z,0.00
2017-04-20T02:52:08.833Z,0.00
2017-04-20T02:53:08.887Z,0.00
2017-04-20T02:54:02.955Z,0.00
2017-04-20T02:55:02.997Z,0.00
2017-04-20T02:55:57.999Z,0.00
2017-04-20T02:56:53.071Z,0.00
2017-04-20T02:57:53.459Z,0.00
2017-04-20T02:58:48.074Z,0.00
2017-04-20T02:59:43.036Z,0.00
2017-04-20T03:00:43.090Z,0.00
2017-04-20T03:01:38.121Z,0.00
2017-04-20T03:02:33.147Z,0.00
2017-04-20T03:03:34.155Z,0.00
2017-04-20T03:04:35.213Z,0.00
2017-04-20T03:05:30.219Z,0.00
2017-04-20T03:06:24.262Z,0.00
2017-04-20T03:07:24.222Z,0.00
2017-04-20T03:08:24.226Z,0.00
2017-04-20T03:09:19.290Z,0.00
2017-04-20T03:10:13.350Z,0.00
2017-04-20T03:11:13.428Z,0.00
2017-04-20T03:12:08.343Z,0.00
2017-04-20T03:13:03.415Z,0.00
2017-04-20T03:14:04.448Z,0.00
2017-04-20T03:15:05.002Z,0.00
2017-04-20T03:16:04.513Z,0.00
2017-04-20T03:16:59.480Z,0.00
2017-04-20T03:17:59.460Z,0.00
2017-04-20T03:18:59.546Z,0.00
2017-04-20T03:19:53.537Z,0.00
2017-04-20T03:20:53.552Z,0.00
2017-04-20T03:21:48.552Z,0.00
2017-04-20T03:22:49.016Z,0.00
2017-04-20T03:23:42.655Z,0.00
2017-04-20T03:24:42.652Z,0.00
2017-04-20T03:25:37.649Z,0.00
2017-04-20T03:26:32.725Z,0.00
2017-04-20T03:27:32.723Z,0.00
2017-04-20T03:28:28.433Z,0.00
2017-04-20T03:29:22.842Z,0.00
2017-04-20T03:30:23.821Z,0.00
2017-04-20T03:31:23.823Z,0.00
2017-04-20T03:32:23.813Z,0.00
2017-04-20T03:33:18.844Z,0.00
2017-04-20T03:34:13.388Z,0.00
2017-04-20T03:35:13.390Z,0.00
2017-04-20T03:36:07.914Z,0.00
2017-04-20T03:37:07.914Z,0.00
2017-04-20T03:38:01.978Z,0.00
2017-04-20T03:39:01.981Z,0.00
2017-04-20T03:39:57.054Z,0.00
2017-04-20T03:40:52.400Z,0.00
2017-04-20T03:41:52.045Z,0.00
2017-04-20T03:42:47.093Z,0.00
2017-04-20T03:43:42.099Z,0.00
2017-04-20T03:44:48.143Z,0.00
2017-04-20T03:45:42.230Z,0.00
2017-04-20T03:46:42.149Z,0.00
2017-04-20T03:47:37.145Z,0.00
2017-04-20T03:48:37.313Z,0.00
2017-04-20T03:49:31.198Z,0.00
2017-04-20T03:50:31.221Z,0.00
2017-04-20T03:51:26.348Z,0.00
2017-04-20T03:52:21.351Z,0.00
2017-04-20T03:53:21.784Z,0.00
2017-04-20T03:54:16.342Z,0.00
2017-04-20T03:55:11.331Z,0.00
2017-04-20T03:56:11.375Z,0.00
2017-04-20T03:57:06.405Z,0.00
2017-04-20T03:58:01.406Z,0.00
2017-04-20T03:59:02.653Z,0.00
2017-04-20T04:00:03.472Z,0.00
2017-04-20T04:00:58.518Z,0.00
2017-04-20T04:01:52.578Z,0.00
2017-04-20T04:02:52.582Z,0.00
2017-04-20T04:03:47.797Z,0.00
2017-04-20T04:04:43.121Z,0.00
2017-04-20T04:05:43.604Z,0.00
2017-04-20T04:06:43.612Z,0.00
2017-04-20T04:07:43.647Z,0.00
2017-04-20T04:08:43.742Z,0.00
2017-04-20T04:09:43.716Z,0.00
2017-04-20T04:10:44.706Z,0.00
2017-04-20T04:11:39.735Z,0.00
2017-04-20T04:12:40.113Z,0.00
2017-04-20T04:13:39.796Z,0.00
2017-04-20T04:14:33.858Z,0.00
2017-04-20T04:15:34.802Z,0.00
2017-04-20T04:16:29.846Z,0.00
2017-04-20T04:17:29.835Z,0.00
2017-04-20T04:18:35.903Z,0.00
2017-04-20T04:19:30.954Z,0.00
2017-04-20T04:20:24.983Z,0.00
2017-04-20T04:21:26.014Z,0.00
2017-04-20T04:22:27.029Z,0.00
2017-04-20T04:23:22.003Z,0.00
2017-04-20T04:24:22.574Z,0.00
2017-04-20T04:25:22.053Z,0.01
2017-04-20T04:26:22.088Z,0.01
2017-04-20T04:27:22.597Z,0.01
2017-04-20T04:28:22.125Z,0.01
2017-04-20T04:29:22.751Z,0.01
2017-04-20T04:30:22.142Z,0.01
2017-04-20T04:31:22.183Z,0.01
2017-04-20T04:32:22.240Z,0.01
2017-04-20T04:33:22.256Z,0.01
2017-04-20T04:34:22.853Z,0.01
2017-04-20T04:35:22.262Z,0.01
2017-04-20T04:36:22.363Z,0.01
2017-04-20T04:37:22.379Z,0.01
2017-04-20T04:38:22.322Z,0.02
2017-04-20T04:39:22.901Z,0.02
2017-04-20T04:40:22.486Z,0.02
2017-04-20T04:41:22.421Z,0.02
2017-04-20T04:42:22.431Z,0.02
2017-04-20T04:43:22.544Z,0.02
2017-04-20T04:44:22.742Z,0.02
2017-04-20T04:45:22.480Z,0.02
2017-04-20T04:46:22.564Z,0.02
2017-04-20T04:47:22.627Z,0.02
2017-04-20T04:48:22.531Z,0.02
2017-04-20T04:49:23.142Z,0.02
2017-04-20T04:50:22.557Z,0.02
2017-04-20T04:51:22.610Z,0.02
2017-04-20T04:52:22.612Z,0.02
2017-04-20T04:53:23.112Z,0.03
2017-04-20T04:54:23.348Z,0.03
2017-04-20T04:55:22.970Z,0.03
2017-04-20T04:56:22.746Z,0.03
2017-04-20T04:57:28.728Z,0.03
2017-04-20T04:58:23.753Z,0.03
2017-04-20T04:59:17.798Z,0.03
2017-04-20T05:00:17.897Z,0.03
2017-04-20T05:01:12.814Z,0.04
2017-04-20T05:02:07.852Z,0.04
2017-04-20T05:03:07.858Z,0.04
2017-04-20T05:04:02.936Z,0.04
2017-04-20T05:05:02.911Z,0.04
2017-04-20T05:06:03.952Z,0.05
2017-04-20T05:07:04.985Z,0.05
2017-04-20T05:07:58.956Z,0.05
2017-04-20T05:08:59.053Z,0.05
2017-04-20T05:09:54.041Z,0.05
2017-04-20T05:10:49.053Z,0.05
2017-04-20T05:11:43.101Z,0.06
2017-04-20T05:12:43.406Z,0.06
2017-04-20T05:13:38.134Z,0.06
2017-04-20T05:14:33.188Z,0.06
2017-04-20T05:15:33.195Z,0.06
2017-04-20T05:16:28.218Z,0.06
2017-04-20T05:17:23.218Z,0.06
2017-04-20T05:18:17.643Z,0.06
2017-04-20T05:19:18.337Z,0.07
2017-04-20T05:20:13.346Z,0.07
2017-04-20T05:21:13.361Z,0.07
2017-04-20T05:22:13.361Z,0.07
2017-04-20T05:23:13.413Z,0.07
2017-04-20T05:24:13.453Z,0.07
2017-04-20T05:25:13.436Z,0.07
2017-04-20T05:26:13.882Z,0.07
2017-04-20T05:27:13.506Z,0.08
2017-04-20T05:28:13.592Z,0.08
2017-04-20T05:29:13.722Z,0.08
2017-04-20T05:30:13.704Z,0.09
2017-04-20T05:31:13.620Z,0.09
2017-04-20T05:32:19.688Z,0.09
2017-04-20T05:33:13.728Z,0.09
2017-04-20T05:34:07.703Z,0.09
2017-04-20T05:35:07.804Z,0.10
2017-04-20T05:35:56.738Z,0.10
2017-04-20T05:36:50.822Z,0.11
2017-04-20T05:37:50.843Z,0.11
2017-04-20T05:38:45.258Z,0.11
2017-04-20T05:39:38.930Z,0.11
2017-04-20T05:40:28.052Z,0.12
2017-04-20T05:41:22.954Z,0.11
2017-04-20T05:42:28.970Z,0.11
2017-04-20T05:43:18.373Z,0.12
2017-04-20T05:44:12.049Z,0.12
2017-04-20T05:45:06.096Z,0.13
2017-04-20T05:46:00.144Z,0.14
2017-04-20T05:47:00.193Z,0.14
2017-04-20T05:47:55.171Z,0.15
2017-04-20T05:48:49.265Z,0.15
2017-04-20T05:49:49.302Z,0.15
2017-04-20T05:50:43.263Z,0.15
2017-04-20T05:51:37.329Z,0.16
2017-04-20T05:52:31.313Z,0.16
2017-04-20T05:53:26.415Z,0.16
2017-04-20T05:54:26.445Z,0.16
2017-04-20T05:55:20.460Z,0.16
2017-04-20T05:56:15.497Z,0.17
2017-04-20T05:57:09.572Z,0.17
2017-04-20T05:58:04.989Z,0.17
2017-04-20T05:58:54.039Z,0.17
2017-04-20T05:59:48.652Z,0.17
2017-04-20T06:00:48.899Z,0.17
2017-04-20T06:01:44.041Z,0.17
2017-04-20T06:02:37.945Z,0.18
2017-04-20T06:03:32.824Z,0.19
2017-04-20T06:04:27.823Z,0.19
2017-04-20T06:05:21.835Z,0.19
2017-04-20T06:06:15.859Z,0.20
2017-04-20T06:07:10.912Z,0.20
2017-04-20T06:07:59.920Z,0.21
2017-04-20T06:08:54.726Z,0.22
2017-04-20T06:10:00.060Z,0.22
2017-04-20T06:10:54.055Z,0.22
2017-04-20T06:11:49.074Z,0.22
2017-04-20T06:12:43.146Z,0.22
2017-04-20T06:13:37.179Z,0.22
2017-04-20T06:14:31.236Z,0.22
2017-04-20T06:15:25.260Z,0.22
2017-04-20T06:16:26.286Z,0.23
2017-04-20T06:17:20.626Z,0.24
2017-04-20T06:18:15.351Z,0.22
2017-04-20T06:19:15.389Z,0.25
2017-04-20T06:20:10.528Z,0.25
2017-04-20T06:20:58.463Z,0.25
2017-04-20T06:21:58.580Z,0.26
2017-04-20T06:22:53.548Z,0.25
2017-04-20T06:23:41.614Z,0.25
2017-04-20T06:24:29.700Z,0.25
2017-04-20T06:25:23.732Z,0.26
2017-04-20T06:26:11.811Z,0.27
2017-04-20T06:27:00.786Z,0.27
2017-04-20T06:27:48.881Z,0.27
2017-04-20T06:28:36.867Z,0.28
2017-04-20T06:29:26.277Z,0.26
2017-04-20T06:30:14.961Z,0.26
2017-04-20T06:31:03.179Z,0.27
2017-04-20T06:31:51.027Z,0.28
2017-04-20T06:32:39.074Z,0.29
2017-04-20T06:33:34.187Z,0.29
2017-04-20T06:34:28.262Z,0.29
2017-04-20T06:35:23.228Z,0.29
2017-04-20T06:36:11.344Z,0.29
2017-04-20T06:36:59.330Z,0.29
2017-04-20T06:37:48.596Z,0.29
2017-04-20T06:38:37.395Z,0.30
2017-04-20T06:39:32.529Z,0.30
2017-04-20T06:40:26.499Z,0.31
2017-04-20T06:41:21.802Z,0.31
2017-04-20T06:42:15.643Z,0.32
2017-04-20T06:43:04.642Z,0.32
2017-04-20T06:44:04.685Z,0.33
2017-04-20T06:44:58.745Z,0.33
2017-04-20T06:45:47.146Z,0.33
2017-04-20T06:46:34.862Z,0.29
2017-04-20T06:47:29.871Z,0.29
2017-04-20T06:48:29.872Z,0.28
2017-04-20T06:49:17.946Z,0.29
2017-04-20T06:50:06.954Z,0.28
2017-04-20T06:50:55.062Z,0.31
2017-04-20T06:51:43.358Z,0.33
2017-04-20T06:52:44.129Z,0.33
2017-04-20T06:53:32.182Z,0.33
2017-04-20T06:54:21.225Z,0.33
2017-04-20T06:55:09.865Z,0.33
2017-04-20T06:55:57.367Z,0.33
2017-04-20T06:56:51.394Z,0.33
2017-04-20T06:57:51.385Z,0.34
2017-04-20T06:58:46.414Z,0.35
2017-04-20T06:59:41.466Z,0.36
2017-04-20T07:00:30.517Z,0.36
2017-04-20T07:01:24.553Z,0.36
2017-04-20T07:02:18.685Z,0.36
2017-04-20T07:03:08.247Z,0.37
2017-04-20T07:04:02.138Z,0.38
2017-04-20T07:05:01.779Z,0.34
2017-04-20T07:05:55.768Z,0.32
2017-04-20T07:06:43.851Z,0.34
2017-04-20T07:07:32.930Z,0.34
2017-04-20T07:08:26.924Z,0.34
2017-04-20T07:09:27.011Z,0.37
2017-04-20T07:10:16.061Z,0.40
2017-04-20T07:11:10.377Z,0.40
2017-04-20T07:12:10.059Z,0.41
2017-04-20T07:13:05.488Z,0.40
2017-04-20T07:14:00.114Z,0.41
2017-04-20T07:15:00.222Z,0.37
2017-04-20T07:15:55.342Z,0.36
2017-04-20T07:16:50.341Z,0.40
2017-04-20T07:17:44.367Z,0.38
2017-04-20T07:18:46.051Z,0.37
2017-04-20T07:19:40.420Z,0.38
2017-04-20T07:20:34.463Z,0.38
2017-04-20T07:21:28.527Z,0.38
2017-04-20T07:22:23.582Z,0.40
2017-04-20T07:23:18.120Z,0.42
2017-04-20T07:24:07.053Z,0.41
2017-04-20T07:25:01.705Z,0.40
2017-04-20T07:25:50.747Z,0.40
2017-04-20T07:26:45.129Z,0.42
2017-04-20T07:27:33.869Z,0.44
2017-04-20T07:28:21.918Z,0.44
2017-04-20T07:29:21.966Z,0.42
2017-04-20T07:30:16.980Z,0.42
2017-04-20T07:31:06.025Z,0.43
2017-04-20T07:31:54.035Z,0.43
2017-04-20T07:32:43.158Z,0.43
2017-04-20T07:33:37.174Z,0.45
2017-04-20T07:34:32.336Z,0.47
2017-04-20T07:35:27.282Z,0.49
2017-04-20T07:36:16.389Z,0.45
2017-04-20T07:37:16.382Z,0.50
2017-04-20T07:38:10.440Z,0.52
2017-04-20T07:38:58.455Z,0.50
2017-04-20T07:39:52.547Z,0.51
2017-04-20T07:40:41.563Z,0.51
2017-04-20T07:41:36.588Z,0.52
2017-04-20T07:42:31.662Z,0.48
2017-04-20T07:43:31.802Z,0.47
2017-04-20T07:44:26.775Z,0.48
2017-04-20T07:45:14.845Z,0.52
2017-04-20T07:46:04.036Z,0.51
2017-04-20T07:47:03.873Z,0.49
2017-04-20T07:47:52.926Z,0.49
2017-04-20T07:48:53.439Z,0.46
2017-04-20T07:49:42.072Z,0.46
2017-04-20T07:50:36.341Z,0.45
2017-04-20T07:51:30.192Z,0.46
2017-04-20T07:52:24.154Z,0.47
2017-04-20T07:53:12.250Z,0.47
2017-04-20T07:54:00.535Z,0.54
2017-04-20T07:54:49.344Z,0.56
2017-04-20T07:55:44.880Z,0.55
2017-04-20T07:56:44.461Z,0.54
2017-04-20T07:57:33.463Z,0.53
2017-04-20T07:58:33.936Z,0.54
2017-04-20T07:59:33.579Z,0.54
2017-04-20T08:00:28.693Z,0.56
2017-04-20T08:01:17.727Z,0.58
2017-04-20T08:02:06.788Z,0.54
2017-04-20T08:02:55.765Z,0.51
2017-04-20T08:03:44.864Z,0.54
2017-04-20T08:04:38.923Z,0.57
2017-04-20T08:05:38.927Z,0.56
2017-04-20T08:06:39.016Z,0.59
2017-04-20T08:07:34.688Z,0.54
2017-04-20T08:08:28.073Z,0.58
2017-04-20T08:09:17.126Z,0.57
2017-04-20T08:10:12.182Z,0.56
2017-04-20T08:11:07.184Z,0.56
2017-04-20T08:12:08.697Z,0.57
2017-04-20T08:13:02.322Z,0.55
2017-04-20T08:13:50.359Z,0.55
2017-04-20T08:14:45.404Z,0.56
2017-04-20T08:15:40.458Z,0.42
2017-04-20T08:16:35.967Z,0.57
2017-04-20T08:17:35.596Z,0.56
2017-04-20T08:18:29.627Z,0.55
2017-04-20T08:19:18.683Z,0.55
2017-04-20T08:20:07.747Z,0.57
2017-04-20T08:21:01.760Z,0.56
2017-04-20T08:21:56.814Z,0.56
2017-04-20T08:22:52.232Z,0.55
2017-04-20T08:23:40.926Z,0.49
2017-04-20T08:24:30.434Z,0.56
2017-04-20T08:25:25.023Z,0.58
2017-04-20T08:26:14.039Z,0.55
2017-04-20T08:27:14.119Z,0.54
2017-04-20T08:28:09.594Z,0.55
2017-04-20T08:28:58.995Z,0.30
2017-04-20T08:29:47.265Z,0.33
2017-04-20T08:30:36.351Z,0.40
2017-04-20T08:31:25.862Z,0.34
2017-04-20T08:32:20.432Z,0.57
2017-04-20T08:33:20.454Z,0.58
2017-04-20T08:34:09.573Z,0.53
2017-04-20T08:35:03.565Z,0.30
2017-04-20T08:36:03.574Z,0.37
2017-04-20T08:36:57.652Z,0.58
2017-04-20T08:37:57.723Z,0.59
2017-04-20T08:38:51.725Z,0.61
2017-04-20T08:39:45.831Z,0.61
2017-04-20T08:40:39.892Z,0.66
2017-04-20T08:41:34.089Z,0.66
2017-04-20T08:42:28.008Z,0.65
2017-04-20T08:43:17.047Z,0.65
2017-04-20T08:44:17.608Z,0.62
2017-04-20T08:45:11.095Z,0.63
2017-04-20T08:45:59.189Z,0.64
2017-04-20T08:46:47.243Z,0.66
2017-04-20T08:47:42.254Z,0.62
2017-04-20T08:48:37.249Z,0.66
2017-04-20T08:49:31.312Z,0.65
2017-04-20T08:50:25.369Z,0.64
2017-04-20T08:51:20.430Z,0.66
2017-04-20T08:52:15.557Z,0.66
2017-04-20T08:53:09.518Z,0.67
2017-04-20T08:53:59.274Z,0.66
2017-04-20T08:54:47.672Z,0.63
2017-04-20T08:55:41.685Z,0.65
2017-04-20T08:56:29.776Z,0.67
2017-04-20T08:57:23.853Z,0.67
2017-04-20T08:58:18.857Z,0.68
2017-04-20T08:59:13.925Z,0.67
2017-04-20T09:00:09.070Z,0.69
2017-04-20T09:00:58.325Z,0.68
2017-04-20T09:01:47.063Z,0.58
2017-04-20T09:02:36.164Z,0.63
2017-04-20T09:03:30.133Z,0.64
2017-04-20T09:04:24.236Z,0.64
2017-04-20T09:05:18.621Z,0.66
2017-04-20T09:06:13.494Z,0.69
2017-04-20T09:07:07.335Z,0.69
2017-04-20T09:08:07.455Z,0.70
2017-04-20T09:09:01.349Z,0.71
2017-04-20T09:09:56.882Z,0.70
2017-04-20T09:10:45.818Z,0.70
2017-04-20T09:11:39.716Z,0.69
2017-04-20T09:12:33.661Z,0.71
2017-04-20T09:13:28.074Z,0.70
2017-04-20T09:14:21.729Z,0.71
2017-04-20T09:15:15.823Z,0.72
2017-04-20T09:16:10.986Z,0.72
2017-04-20T09:17:04.943Z,0.74
2017-04-20T09:17:59.065Z,0.73
2017-04-20T09:18:59.621Z,0.73
2017-04-20T09:19:59.055Z,0.74
2017-04-20T09:20:54.107Z,0.74
2017-04-20T09:21:43.138Z,0.72
2017-04-20T09:22:38.236Z,0.72
2017-04-20T09:23:33.230Z,0.72
2017-04-20T09:24:33.351Z,0.73
2017-04-20T09:25:22.409Z,0.72
2017-04-20T09:26:11.496Z,0.71
2017-04-20T09:27:00.505Z,0.70
2017-04-20T09:27:49.548Z,0.70
2017-04-20T09:28:43.581Z,0.70
2017-04-20T09:29:37.628Z,0.72
2017-04-20T09:30:37.732Z,0.72
2017-04-20T09:31:38.285Z,0.66
2017-04-20T09:32:32.279Z,0.70
2017-04-20T09:33:20.851Z,0.72
2017-04-20T09:34:16.357Z,0.72
2017-04-20T09:35:10.574Z,0.74
2017-04-20T09:36:10.245Z,0.69
2017-04-20T09:36:59.044Z,0.35
2017-04-20T09:37:54.347Z,0.65
2017-04-20T09:38:49.142Z,0.30
2017-04-20T09:39:43.249Z,0.70
2017-04-20T09:40:37.249Z,0.74
2017-04-20T09:41:31.370Z,0.60
2017-04-20T09:42:19.474Z,0.69
2017-04-20T09:43:13.726Z,0.66
2017-04-20T09:44:13.465Z,0.77
2017-04-20T09:45:02.683Z,0.76
2017-04-20T09:45:57.580Z,0.71
2017-04-20T09:46:51.648Z,0.75
2017-04-20T09:47:45.667Z,0.31
2017-04-20T09:48:39.808Z,0.70
2017-04-20T09:49:28.791Z,0.74
2017-04-20T09:50:22.842Z,0.78
2017-04-20T09:51:16.920Z,0.78
2017-04-20T09:52:10.995Z,0.79
2017-04-20T09:53:05.579Z,0.75
2017-04-20T09:54:06.065Z,0.64
2017-04-20T09:54:55.144Z,0.74
2017-04-20T09:55:49.121Z,0.79
2017-04-20T09:56:43.201Z,0.77
2017-04-20T09:57:37.222Z,0.78
2017-04-20T09:58:26.323Z,0.79
2017-04-20T09:59:26.378Z,0.78
2017-04-20T10:00:20.436Z,0.74
2017-04-20T10:01:14.464Z,0.74
2017-04-20T10:02:14.710Z,0.73
2017-04-20T10:03:08.570Z,0.70
2017-04-20T10:04:02.627Z,0.78
2017-04-20T10:04:51.902Z,0.76
2017-04-20T10:05:45.717Z,0.79
2017-04-20T10:06:46.080Z,0.74
2017-04-20T10:07:40.858Z,0.72
2017-04-20T10:08:35.923Z,0.79
2017-04-20T10:09:35.968Z,0.77
2017-04-20T10:10:30.374Z,0.77
2017-04-20T10:11:30.067Z,0.78
2017-04-20T10:12:24.135Z,0.76
2017-04-20T10:13:24.167Z,0.79
2017-04-20T10:14:18.240Z,0.80
2017-04-20T10:15:06.233Z,0.76
2017-04-20T10:16:06.608Z,0.72
2017-04-20T10:16:54.378Z,0.76
2017-04-20T10:17:42.423Z,0.76
2017-04-20T10:18:31.483Z,0.77
2017-04-20T10:19:25.536Z,0.75
2017-04-20T10:20:13.523Z,0.78
2017-04-20T10:21:09.041Z,0.78
2017-04-20T10:22:03.744Z,0.79
2017-04-20T10:22:57.734Z,0.80
2017-04-20T10:23:46.794Z,0.82
2017-04-20T10:24:41.871Z,0.83
2017-04-20T10:25:35.935Z,0.82
2017-04-20T10:26:30.000Z,0.76
2017-04-20T10:27:29.987Z,0.79
2017-04-20T10:28:24.089Z,0.80
2017-04-20T10:29:13.141Z,0.81
2017-04-20T10:30:08.165Z,0.81
2017-04-20T10:31:02.244Z,0.79
2017-04-20T10:31:56.323Z,0.79
2017-04-20T10:32:45.327Z,0.79
2017-04-20T10:33:40.407Z,0.79
2017-04-20T10:34:41.436Z,0.79
2017-04-20T10:35:35.499Z,0.78
2017-04-20T10:36:23.698Z,0.76
2017-04-20T10:37:17.615Z,0.77
2017-04-20T10:38:05.640Z,0.77
2017-04-20T10:39:01.441Z,0.29
2017-04-20T10:40:53.012Z,0.80
2017-04-20T10:41:46.864Z,0.42
2017-04-20T10:42:46.922Z,0.79
2017-04-20T10:43:36.047Z,0.80
2017-04-20T10:44:30.010Z,0.81
2017-04-20T10:45:19.120Z,0.81
2017-04-20T10:46:07.129Z,0.71
2017-04-20T10:47:02.274Z,0.30
2017-04-20T10:47:56.214Z,0.79
2017-04-20T10:48:56.334Z,0.79
2017-04-20T10:49:51.384Z,0.78
2017-04-20T10:50:45.435Z,0.29
2017-04-20T10:51:39.458Z,0.72
2017-04-20T10:52:28.515Z,0.51
2017-04-20T10:53:22.704Z,0.63
2017-04-20T10:54:22.620Z,0.71
2017-04-20T10:55:17.631Z,0.57
2017-04-20T10:56:05.714Z,0.72
2017-04-20T10:57:05.815Z,0.77
2017-04-20T10:57:54.999Z,0.75
2017-04-20T10:58:48.849Z,0.74
2017-04-20T10:59:43.970Z,0.76
2017-04-20T11:00:37.983Z,0.77
2017-04-20T11:01:32.047Z,0.78
2017-04-20T11:02:27.631Z,0.79
2017-04-20T11:03:21.110Z,0.77
2017-04-20T11:04:15.245Z,0.77
2017-04-20T11:05:10.241Z,0.76
2017-04-20T11:05:59.335Z,0.76
2017-04-20T11:06:48.382Z,0.53
2017-04-20T11:07:43.431Z,0.76
2017-04-20T11:08:37.535Z,0.78
2017-04-20T11:09:32.128Z,0.74
2017-04-20T11:10:27.355Z,0.79
2017-04-20T11:11:20.630Z,0.78
2017-04-20T11:12:20.722Z,0.29
2017-04-20T11:13:09.769Z,0.79
2017-04-20T11:14:04.765Z,0.78
2017-04-20T11:14:59.204Z,0.78
2017-04-20T11:15:53.996Z,0.78
2017-04-20T11:16:42.978Z,0.78
2017-04-20T11:17:31.031Z,0.76
2017-04-20T11:18:26.294Z,0.77
2017-04-20T11:19:15.174Z,0.78
2017-04-20T11:20:15.149Z,0.79
2017-04-20T11:21:10.315Z,0.79
2017-04-20T11:22:10.261Z,0.79
2017-04-20T11:22:59.362Z,0.79
2017-04-20T11:23:54.405Z,0.26
2017-04-20T11:24:54.389Z,0.76
2017-04-20T11:25:48.457Z,0.79
2017-04-20T11:26:37.515Z,0.79
2017-04-20T11:27:26.942Z,0.80
2017-04-20T11:28:20.654Z,0.80
2017-04-20T11:29:14.740Z,0.80
2017-04-20T11:30:08.842Z,0.79
2017-04-20T11:30:57.818Z,0.79
2017-04-20T11:31:46.867Z,0.77
2017-04-20T11:32:40.968Z,0.78
2017-04-20T11:33:35.019Z,0.76
2017-04-20T11:34:29.073Z,0.76
2017-04-20T11:35:18.184Z,0.77
2017-04-20T11:36:12.252Z,0.78
2017-04-20T11:37:06.280Z,0.77
2017-04-20T11:38:00.290Z,0.78
2017-04-20T11:38:49.882Z,0.79
2017-04-20T11:39:38.520Z,0.79
2017-04-20T11:40:32.494Z,0.79
2017-04-20T11:41:21.518Z,0.79
2017-04-20T11:42:15.554Z,0.81
2017-04-20T11:43:04.625Z,0.79
2017-04-20T11:43:59.101Z,0.79
2017-04-20T11:44:58.678Z,0.81
2017-04-20T11:45:52.825Z,0.80
2017-04-20T11:46:47.069Z,0.80
2017-04-20T11:47:41.901Z,0.79
2017-04-20T11:48:35.927Z,0.79
2017-04-20T11:49:24.010Z,0.79
2017-04-20T11:50:18.066Z,0.79
2017-04-20T11:51:07.206Z,0.79
2017-04-20T11:51:56.172Z,0.78
2017-04-20T11:52:56.249Z,0.25
2017-04-20T11:53:45.282Z,0.77
2017-04-20T11:54:45.325Z,0.76
2017-04-20T11:55:39.397Z,0.75
2017-04-20T11:56:27.443Z,0.76
2017-04-20T11:57:21.519Z,0.73
2017-04-20T11:58:16.537Z,0.76
2017-04-20T11:59:12.397Z,0.74
2017-04-20T12:00:05.688Z,0.75
2017-04-20T12:00:59.719Z,0.76
2017-04-20T12:01:48.783Z,0.76
2017-04-20T12:02:43.837Z,0.75
2017-04-20T12:03:31.923Z,0.74
2017-04-20T12:04:20.981Z,0.70
2017-04-20T12:05:15.047Z,0.72
2017-04-20T12:06:09.065Z,0.74
2017-04-20T12:06:58.150Z,0.74
2017-04-20T12:07:52.198Z,0.74
2017-04-20T12:08:46.247Z,0.74
2017-04-20T12:09:35.848Z,0.74
2017-04-20T12:10:29.289Z,0.74
2017-04-20T12:11:23.401Z,0.74
2017-04-20T12:12:23.420Z,0.75
2017-04-20T12:13:11.481Z,0.76
2017-04-20T12:14:05.497Z,0.74
2017-04-20T12:15:00.640Z,0.76
2017-04-20T12:15:55.696Z,0.75
2017-04-20T12:16:49.987Z,0.75
2017-04-20T12:17:43.805Z,0.73
2017-04-20T12:18:43.779Z,0.74